Time;durP1;ratioP1;P1;durP2;ratioP2;P2;SDS_P1;SDS_P2;PMS_P1;PMS_P2;Temp;Humidity;BMP_temperature;BMP_pressure;BME280_temperature;BME280_humidity;BME280_pressure;Samples;Min_cycle;Max_cycle;Signal;HPM_P1;HPM_P2
2021/09/20 00:01:21;;;;;;;4.82;4.43;;;;;;;;;;5106036;28;20225;-46
2021/09/20 00:03:50;;;;;;;4.70;4.30;;;;;;;;;;5116244;28;20173;-46
2021/09/20 00:06:16;;;;;;;5.07;4.00;;;;;;;;;;5114871;28;20181;-46
2021/09/20 00:08:42;;;;;;;4.65;4.28;;;;;;;;;;5115216;28;20571;-46
2021/09/20 00:11:08;;;;;;;4.95;4.55;;;;;;;;;;5115604;28;20196;-46
2021/09/20 00:13:34;;;;;;;4.93;4.53;;;;;;;;;;5110628;28;20189;-46
2021/09/20 00:16:00;;;;;;;6.63;4.50;;;;;;;;;;5095906;28;20181;-46
2021/09/20 00:18:26;;;;;;;5.28;4.18;;;;;;;;;;5095457;28;20182;-46
2021/09/20 00:20:52;;;;;;;6.45;4.40;;;;;;;;;;5102042;28;20255;-46
2021/09/20 00:23:18;;;;;;;4.55;3.90;;;;;;;;;;5112157;28;20246;-46
2021/09/20 00:25:45;;;;;;;4.88;4.47;;;;;;;;;;5107462;28;20188;-46
2021/09/20 00:28:11;;;;;;;6.70;4.15;;;;;;;;;;5114818;28;20212;-46
2021/09/20 00:30:40;;;;;;;4.68;4.15;;;;;;;;;;5111739;28;20188;-46
2021/09/20 00:33:06;;;;;;;4.50;4.10;;;;;;;;;;5095218;28;20170;-46
2021/09/20 00:35:32;;;;;;;4.43;4.03;;;;;;;;;;5095815;28;20571;-46
2021/09/20 00:37:58;;;;;;;4.70;4.30;;;;;;;;;;5094772;28;20162;-46
2021/09/20 00:40:24;;;;;;;4.18;3.70;;;;;;;;;;5112444;28;20181;-46
2021/09/20 00:42:50;;;;;;;4.45;4.05;;;;;;;;;;5109282;28;20228;-46
2021/09/20 00:45:16;;;;;;;4.78;3.92;;;;;;;;;;5115418;28;20185;-46
2021/09/20 00:47:42;;;;;;;4.15;3.75;;;;;;;;;;5114954;28;20206;-46
2021/09/20 00:50:08;;;;;;;4.70;4.30;;;;;;;;;;5115683;28;20164;-46
2021/09/20 00:52:35;;;;;;;4.88;4.38;;;;;;;;;;5105060;28;20181;-46
2021/09/20 00:55:01;;;;;;;4.40;4.00;;;;;;;;;;5095036;28;20176;-46
2021/09/20 00:57:27;;;;;;;3.88;3.58;;;;;;;;;;5100137;28;20170;-46
2021/09/20 00:59:53;;;;;;;4.60;4.20;;;;;;;;;;5095185;28;20543;-46
2021/09/20 01:02:19;;;;;;;4.70;4.18;;;;;;;;;;5111135;28;20224;-46
2021/09/20 01:04:45;;;;;;;5.07;4.45;;;;;;;;;;5115265;28;20172;-46
2021/09/20 01:07:11;;;;;;;4.32;3.92;;;;;;;;;;5097269;28;20177;-46
2021/09/20 01:09:41;;;;;;;4.30;3.90;;;;;;;;;;5094904;28;20285;-46
2021/09/20 01:12:08;;;;;;;4.47;4.03;;;;;;;;;;5109873;28;20560;-46
2021/09/20 01:14:34;;;;;;;5.82;4.07;;;;;;;;;;5114956;28;20268;-46
2021/09/20 01:17:00;;;;;;;4.35;3.83;;;;;;;;;;5114291;28;20268;-46
2021/09/20 01:19:26;;;;;;;4.43;4.10;;;;;;;;;;5106329;28;20272;-46
2021/09/20 01:21:52;;;;;;;4.40;3.85;;;;;;;;;;5107116;28;20540;-46
2021/09/20 01:24:18;;;;;;;4.65;4.25;;;;;;;;;;5111896;28;20180;-46
2021/09/20 01:26:44;;;;;;;5.03;4.47;;;;;;;;;;5109039;28;20177;-46
2021/09/20 01:29:10;;;;;;;4.93;4.43;;;;;;;;;;5114291;28;20227;-46
2021/09/20 01:31:36;;;;;;;4.13;3.80;;;;;;;;;;5114819;28;20536;-46
2021/09/20 01:34:03;;;;;;;5.00;4.05;;;;;;;;;;5114324;28;20181;-46
2021/09/20 01:36:29;;;;;;;5.13;3.92;;;;;;;;;;5114824;28;20188;-46
2021/09/20 01:38:55;;;;;;;4.30;3.92;;;;;;;;;;5114288;28;20259;-46
2021/09/20 01:41:21;;;;;;;4.50;4.10;;;;;;;;;;5114797;28;20166;-46
2021/09/20 01:43:48;;;;;;;4.55;4.15;;;;;;;;;;5114715;28;20438;-46
2021/09/20 01:46:14;;;;;;;4.95;4.18;;;;;;;;;;5114982;28;20186;-46
2021/09/20 01:48:40;;;;;;;4.25;3.95;;;;;;;;;;5095941;28;20281;-46
2021/09/20 01:51:06;;;;;;;4.30;3.90;;;;;;;;;;5098520;28;20170;-46
2021/09/20 01:53:32;;;;;;;4.10;3.80;;;;;;;;;;5114230;28;20266;-46
2021/09/20 01:55:58;;;;;;;3.97;3.67;;;;;;;;;;5108624;28;20292;-46
2021/09/20 01:58:24;;;;;;;5.30;3.67;;;;;;;;;;5099017;28;20572;-46
2021/09/20 02:00:50;;;;;;;4.93;3.78;;;;;;;;;;5106917;28;20220;-46
2021/09/20 02:03:16;;;;;;;4.40;3.97;;;;;;;;;;5105007;28;20181;-46
2021/09/20 02:05:42;;;;;;;4.47;4.07;;;;;;;;;;5094302;28;20265;-46
2021/09/20 02:08:09;;;;;;;4.05;3.70;;;;;;;;;;5101797;28;20220;-46
2021/09/20 02:10:35;;;;;;;4.10;3.70;;;;;;;;;;5114866;28;20211;-46
2021/09/20 02:13:01;;;;;;;3.97;3.67;;;;;;;;;;5114588;28;20881;-46
2021/09/20 02:15:27;;;;;;;4.57;4.18;;;;;;;;;;5110220;28;20177;-46
2021/09/20 02:17:53;;;;;;;5.50;4.18;;;;;;;;;;5101333;28;20583;-46
2021/09/20 02:20:19;;;;;;;4.80;3.95;;;;;;;;;;5104765;28;20177;-46
2021/09/20 02:22:45;;;;;;;4.45;3.70;;;;;;;;;;5113946;28;20568;-46
2021/09/20 02:25:12;;;;;;;4.05;3.70;;;;;;;;;;5105747;28;20190;-46
2021/09/20 02:27:38;;;;;;;4.10;3.80;;;;;;;;;;5104174;28;20267;-46
2021/09/20 02:30:06;;;;;;;4.97;3.95;;;;;;;;;;5114225;28;20227;-46
2021/09/20 02:32:33;;;;;;;4.03;3.70;;;;;;;;;;5104138;28;20220;-46
2021/09/20 02:34:59;;;;;;;4.18;3.78;;;;;;;;;;5112372;28;20736;-46
2021/09/20 02:37:25;;;;;;;4.32;3.92;;;;;;;;;;5117471;28;20161;-46
2021/09/20 02:39:51;;;;;;;4.78;4.05;;;;;;;;;;5118282;28;20417;-46
2021/09/20 02:42:16;;;;;;;4.07;3.70;;;;;;;;;;5117378;28;20217;-46
2021/09/20 02:44:42;;;;;;;5.60;4.20;;;;;;;;;;5118132;28;20177;-46
2021/09/20 02:47:11;;;;;;;4.38;3.97;;;;;;;;;;5117384;28;20177;-46
2021/09/20 02:49:37;;;;;;;4.70;3.97;;;;;;;;;;5115954;28;20245;-46
2021/09/20 02:52:03;;;;;;;4.10;3.17;;;;;;;;;;5108990;28;20170;-46
2021/09/20 02:54:29;;;;;;;4.70;4.05;;;;;;;;;;5097325;28;20178;-46
2021/09/20 02:56:55;;;;;;;4.80;4.30;;;;;;;;;;5108590;28;20229;-46
2021/09/20 02:59:21;;;;;;;4.68;4.28;;;;;;;;;;5101376;28;20528;-46
2021/09/20 03:01:47;;;;;;;5.25;4.15;;;;;;;;;;5097236;28;20239;-46
2021/09/20 03:04:13;;;;;;;5.78;3.92;;;;;;;;;;5109244;28;20290;-46
2021/09/20 03:06:39;;;;;;;5.32;4.00;;;;;;;;;;5116839;28;20230;-46
2021/09/20 03:09:05;;;;;;;4.68;4.28;;;;;;;;;;5098580;28;20213;-46
2021/09/20 03:11:31;;;;;;;4.53;3.70;;;;;;;;;;5097105;28;20170;-46
2021/09/20 03:13:57;;;;;;;4.00;3.70;;;;;;;;;;5113621;28;20445;-45
2021/09/20 03:16:23;;;;;;;4.72;4.00;;;;;;;;;;5117069;28;20536;-46
2021/09/20 03:18:49;;;;;;;4.60;4.13;;;;;;;;;;5116647;28;20676;-46
2021/09/20 03:21:16;;;;;;;4.50;4.10;;;;;;;;;;5116679;28;20191;-46
2021/09/20 03:23:42;;;;;;;4.38;3.97;;;;;;;;;;5106368;28;20310;-46
2021/09/20 03:26:08;;;;;;;4.80;4.30;;;;;;;;;;5108495;28;20173;-46
2021/09/20 03:28:34;;;;;;;4.78;4.30;;;;;;;;;;5116123;28;20209;-46
2021/09/20 03:31:00;;;;;;;4.47;3.95;;;;;;;;;;5112414;28;20274;-46
2021/09/20 03:33:26;;;;;;;6.03;3.80;;;;;;;;;;5116770;28;20193;-46
2021/09/20 03:35:52;;;;;;;4.88;4.18;;;;;;;;;;5113700;28;20173;-46
2021/09/20 03:38:18;;;;;;;4.30;3.92;;;;;;;;;;5100034;28;20548;-46
2021/09/20 03:40:44;;;;;;;4.80;3.78;;;;;;;;;;5096648;28;20183;-46
2021/09/20 03:43:10;;;;;;;4.22;3.83;;;;;;;;;;5110936;28;20571;-46
2021/09/20 03:45:36;;;;;;;4.50;3.95;;;;;;;;;;5115878;28;20185;-46
2021/09/20 03:48:03;;;;;;;4.60;3.97;;;;;;;;;;5115615;28;20212;-46
2021/09/20 03:50:29;;;;;;;4.30;3.90;;;;;;;;;;5099075;28;20686;-46
2021/09/20 03:52:55;;;;;;;4.57;4.13;;;;;;;;;;5099816;28;20193;-46
2021/09/20 03:55:20;;;;;;;3.92;3.53;;;;;;;;;;5103793;28;20193;-46
2021/09/20 03:57:47;;;;;;;4.95;3.90;;;;;;;;;;5105588;28;20178;-46
2021/09/20 04:00:14;;;;;;;3.90;3.40;;;;;;;;;;5096165;28;20249;-46
2021/09/20 04:02:40;;;;;;;4.60;3.58;;;;;;;;;;5095830;28;20234;-46
2021/09/20 04:05:06;;;;;;;7.07;4.18;;;;;;;;;;5096214;28;20588;-46
2021/09/20 04:07:32;;;;;;;7.22;4.78;;;;;;;;;;5102680;28;20216;-46
2021/09/20 04:09:59;;;;;;;7.68;3.92;;;;;;;;;;5115626;28;20169;-46
2021/09/20 04:12:25;;;;;;;4.75;3.95;;;;;;;;;;5110914;28;20222;-46
2021/09/20 04:14:51;;;;;;;9.40;5.05;;;;;;;;;;5111513;28;20173;-46
2021/09/20 04:17:17;;;;;;;20.13;7.82;;;;;;;;;;5115021;28;20181;-46
2021/09/20 04:19:43;;;;;;;27.52;9.45;;;;;;;;;;5116045;28;20201;-46
2021/09/20 04:22:09;;;;;;;29.90;9.25;;;;;;;;;;5097669;28;20192;-46
2021/09/20 04:24:35;;;;;;;21.95;8.52;;;;;;;;;;5107279;28;20189;-47
2021/09/20 04:27:01;;;;;;;39.17;8.20;;;;;;;;;;5097448;28;20192;-46
2021/09/20 04:29:27;;;;;;;20.85;6.80;;;;;;;;;;5095424;28;20193;-46
2021/09/20 04:31:53;;;;;;;14.00;6.53;;;;;;;;;;5094922;28;20216;-47
2021/09/20 04:34:19;;;;;;;18.05;6.82;;;;;;;;;;5095789;28;20572;-46
2021/09/20 04:36:45;;;;;;;17.33;6.28;;;;;;;;;;5095539;28;20209;-47
2021/09/20 04:39:11;;;;;;;13.05;6.43;;;;;;;;;;5110964;28;20176;-46
2021/09/20 04:41:40;;;;;;;14.07;6.03;;;;;;;;;;5115638;28;20185;-46
2021/09/20 04:44:05;;;;;;;13.00;5.38;;;;;;;;;;5115713;28;20200;-47
2021/09/20 04:46:31;;;;;;;14.75;5.82;;;;;;;;;;5115203;28;20474;-46
2021/09/20 04:48:57;;;;;;;11.30;5.63;;;;;;;;;;5114800;28;20204;-46
2021/09/20 04:51:24;;;;;;;7.90;5.13;;;;;;;;;;5111811;28;20178;-46
2021/09/20 04:53:50;;;;;;;11.65;6.00;;;;;;;;;;5097783;28;20184;-47
2021/09/20 04:56:16;;;;;;;10.90;5.30;;;;;;;;;;5096500;28;20177;-46
2021/09/20 04:58:42;;;;;;;12.90;6.32;;;;;;;;;;5094028;28;20204;-46
2021/09/20 05:01:08;;;;;;;11.65;6.07;;;;;;;;;;5094874;28;20518;-46
2021/09/20 05:03:34;;;;;;;10.68;5.47;;;;;;;;;;5096436;28;20280;-46
2021/09/20 05:06:00;;;;;;;8.52;5.22;;;;;;;;;;5112285;28;20180;-46
2021/09/20 05:08:26;;;;;;;8.25;5.18;;;;;;;;;;5114337;28;20506;-46
2021/09/20 05:10:52;;;;;;;10.70;5.22;;;;;;;;;;5104425;28;20200;-46
2021/09/20 05:13:18;;;;;;;12.30;5.60;;;;;;;;;;5097249;28;20540;-46
2021/09/20 05:15:44;;;;;;;9.65;4.82;;;;;;;;;;5115081;28;20161;-46
2021/09/20 05:18:11;;;;;;;8.10;4.78;;;;;;;;;;5113899;28;20621;-46
2021/09/20 05:20:37;;;;;;;6.25;4.78;;;;;;;;;;5113920;28;20216;-46
2021/09/20 05:23:04;;;;;;;10.82;5.50;;;;;;;;;;5114537;28;20189;-46
2021/09/20 05:25:30;;;;;;;8.60;4.82;;;;;;;;;;5106828;28;20173;-46
2021/09/20 05:27:56;;;;;;;9.70;4.75;;;;;;;;;;5113161;28;20209;-46
2021/09/20 05:30:22;;;;;;;7.85;4.70;;;;;;;;;;5115002;28;20178;-46
2021/09/20 05:32:48;;;;;;;6.93;4.50;;;;;;;;;;5104098;28;20205;-46
2021/09/20 05:35:14;;;;;;;9.65;5.13;;;;;;;;;;5105445;28;20264;-46
2021/09/20 05:37:42;;;;;;;8.68;4.78;;;;;;;;;;5093902;28;20169;-46
2021/09/20 05:40:09;;;;;;;7.20;4.30;;;;;;;;;;5094562;28;20170;-46
2021/09/20 05:42:35;;;;;;;7.13;4.88;;;;;;;;;;5094802;28;20222;-46
2021/09/20 05:45:01;;;;;;;6.68;4.20;;;;;;;;;;5094369;28;20189;-46
2021/09/20 05:47:27;;;;;;;6.75;4.60;;;;;;;;;;5103441;28;20181;-46
2021/09/20 05:49:53;;;;;;;8.02;4.78;;;;;;;;;;5114721;28;20242;-46
2021/09/20 05:52:19;;;;;;;6.97;4.05;;;;;;;;;;5114426;28;20191;-46
2021/09/20 05:54:45;;;;;;;6.45;4.38;;;;;;;;;;5115030;28;20187;-47
2021/09/20 05:57:11;;;;;;;9.40;4.88;;;;;;;;;;5114184;28;20178;-47
2021/09/20 05:59:37;;;;;;;8.73;4.22;;;;;;;;;;5111392;28;20583;-47
2021/09/20 06:02:03;;;;;;;7.65;4.80;;;;;;;;;;5111722;28;20268;-47
2021/09/20 06:04:29;;;;;;;5.22;4.43;;;;;;;;;;5114852;28;20272;-46
2021/09/20 06:06:55;;;;;;;7.97;4.80;;;;;;;;;;5109912;28;20182;-46
2021/09/20 06:09:22;;;;;;;8.05;4.70;;;;;;;;;;5094111;28;20580;-46
2021/09/20 06:11:48;;;;;;;6.07;4.20;;;;;;;;;;5097457;28;20706;-46
2021/09/20 06:14:14;;;;;;;5.80;4.32;;;;;;;;;;5105216;28;20646;-47
2021/09/20 06:16:40;;;;;;;8.75;4.78;;;;;;;;;;5118642;28;20251;-46
2021/09/20 06:19:06;;;;;;;6.25;4.70;;;;;;;;;;5117899;28;20173;-46
